Time;durP1;ratioP1;P1;durP2;ratioP2;P2;SDS_P1;SDS_P2;PMS_P1;PMS_P2;Temp;Humidity;BMP_temperature;BMP_pressure;BME280_temperature;BME280_humidity;BME280_pressure;Samples;Min_cycle;Max_cycle;Signal;HPM_P1;HPM_P2
2022/09/01 00:00:17;;;;;;;5.90;3.30;;;;;;;13.67;72.39;98238.92;105651;1282;24108;-85
2022/09/01 00:03:00;;;;;;;8.40;3.30;;;;;;;13.64;72.44;98238.19;105649;1282;25283;-86
2022/09/01 00:05:31;;;;;;;6.00;3.20;;;;;;;13.65;72.62;98237.20;105620;1282;24369;-85
2022/09/01 00:07:59;;;;;;;4.20;3.10;;;;;;;13.66;72.62;98234.53;105453;1283;24105;-85
2022/09/01 00:10:27;;;;;;;6.40;3.10;;;;;;;13.67;72.62;98230.75;105591;1282;22581;-84
2022/09/01 00:12:55;;;;;;;5.00;3.20;;;;;;;13.70;72.39;98232.19;105546;1283;22890;-84
2022/09/01 00:15:24;;;;;;;5.20;3.20;;;;;;;13.67;72.65;98230.75;105380;1282;26517;-84
2022/09/01 00:17:53;;;;;;;6.20;3.00;;;;;;;13.64;72.81;98231.27;105617;1282;22562;-84
2022/09/01 00:20:21;;;;;;;6.80;3.40;;;;;;;13.61;72.99;98229.67;105624;1282;22723;-84
2022/09/01 00:22:49;;;;;;;5.40;3.20;;;;;;;13.56;72.75;98231.73;105650;1282;24413;-84
2022/09/01 00:25:18;;;;;;;5.80;3.30;;;;;;;13.54;72.91;98232.70;105386;1283;25469;-85
2022/09/01 00:27:48;;;;;;;5.40;3.30;;;;;;;13.49;72.91;98232.73;105637;1282;25564;-85
2022/09/01 00:30:20;;;;;;;4.40;2.90;;;;;;;13.46;72.90;98229.35;105585;1282;22504;-85
2022/09/01 00:32:48;;;;;;;5.20;3.40;;;;;;;13.48;73.08;98228.53;105421;1283;25359;-85
2022/09/01 00:35:18;;;;;;;5.10;3.30;;;;;;;13.49;72.98;98230.02;105603;1281;22730;-84
2022/09/01 00:37:46;;;;;;;4.80;3.20;;;;;;;13.50;72.99;98229.19;105417;1283;22543;-85
2022/09/01 00:40:16;;;;;;;5.00;3.20;;;;;;;13.47;72.89;98228.65;105479;1283;25510;-85
2022/09/01 00:42:44;;;;;;;4.80;3.40;;;;;;;13.46;73.15;98229.13;105514;1283;22708;-83
2022/09/01 00:45:12;;;;;;;5.80;3.20;;;;;;;13.51;72.76;98230.84;105641;1282;22745;-84
2022/09/01 00:47:41;;;;;;;5.30;3.10;;;;;;;13.55;72.99;98230.20;105623;1282;22864;-83
2022/09/01 00:50:12;;;;;;;4.60;2.80;;;;;;;13.54;72.92;98227.30;105600;1282;22886;-86
2022/09/01 00:52:47;;;;;;;5.60;3.20;;;;;;;13.57;72.86;98222.57;105667;1282;23248;-83
2022/09/01 00:55:20;;;;;;;4.90;3.00;;;;;;;13.58;72.68;98223.56;105584;1282;22693;-84
2022/09/01 00:57:48;;;;;;;4.70;3.50;;;;;;;13.60;72.79;98221.05;106097;1282;22554;-84
2022/09/01 01:00:24;;;;;;;4.40;3.10;;;;;;;13.71;72.60;98214.96;105622;1282;25239;-85
2022/09/01 01:02:54;;;;;;;7.40;2.70;;;;;;;13.81;72.47;98215.39;105457;1282;22558;-84
2022/09/01 01:05:32;;;;;;;4.20;3.00;;;;;;;13.83;72.77;98217.84;105613;1282;22758;-85
2022/09/01 01:08:02;;;;;;;6.30;2.70;;;;;;;13.87;72.65;98219.63;105464;1283;23951;-85
2022/09/01 01:10:34;;;;;;;5.10;3.00;;;;;;;13.94;72.38;98218.04;105622;1282;22541;-84
2022/09/01 01:13:11;;;;;;;5.50;2.90;;;;;;;13.90;72.14;98219.35;105494;1282;22680;-84
2022/09/01 01:15:43;;;;;;;5.00;2.80;;;;;;;13.87;72.10;98216.70;105653;1282;22704;-85
2022/09/01 01:18:14;;;;;;;4.70;2.80;;;;;;;13.80;71.84;98212.94;105455;1282;22577;-85
2022/09/01 01:24:17;;;;;;;4.40;2.70;;;;;;;13.78;71.91;98213.32;105647;1282;26642;-86
2022/09/01 01:26:46;;;;;;;4.30;2.80;;;;;;;13.80;72.12;98211.79;105433;1282;25320;-83
2022/09/01 01:29:16;;;;;;;3.30;2.50;;;;;;;13.78;71.74;98215.50;105727;1283;25730;-84
2022/09/01 01:31:52;;;;;;;5.70;3.10;;;;;;;13.63;71.78;98215.84;105512;1282;25535;-86
2022/09/01 01:34:22;;;;;;;4.70;3.10;;;;;;;13.54;71.67;98218.64;105416;1284;24425;-85
2022/09/01 01:36:51;;;;;;;5.80;3.20;;;;;;;13.42;71.91;98217.70;105536;1282;24196;-85
2022/09/01 01:39:24;;;;;;;6.10;3.40;;;;;;;13.29;72.05;98214.17;105476;1284;22758;-85
2022/09/01 01:41:54;;;;;;;4.80;3.50;;;;;;;13.18;72.18;98213.70;105456;1283;22548;-84
2022/09/01 01:44:27;;;;;;;6.50;3.70;;;;;;;13.12;73.20;98210.91;105633;1282;23430;-85
2022/09/01 01:47:03;;;;;;;5.20;3.80;;;;;;;13.01;73.29;98214.21;105643;1282;24283;-86
2022/09/01 01:49:35;;;;;;;6.50;3.60;;;;;;;12.90;73.70;98212.04;105611;1282;22580;-86
2022/09/01 01:52:03;;;;;;;9.00;3.40;;;;;;;12.82;73.92;98209.09;105451;1282;22554;-84
2022/09/01 01:54:36;;;;;;;6.00;3.50;;;;;;;12.74;73.88;98205.27;105602;1282;24317;-85
2022/09/01 01:57:04;;;;;;;4.20;3.10;;;;;;;12.71;74.74;98208.30;105933;1283;22659;-84
2022/09/01 01:59:33;;;;;;;7.00;3.80;;;;;;;12.68;74.71;98206.42;105767;1282;23948;-85
2022/09/01 02:02:02;;;;;;;5.00;3.40;;;;;;;12.63;74.94;98208.33;105789;1282;25422;-85
2022/09/01 02:04:32;;;;;;;6.30;3.50;;;;;;;12.58;75.31;98202.42;106010;1282;22581;-85
2022/09/01 02:07:10;;;;;;;6.40;3.20;;;;;;;12.53;75.10;98204.11;105707;1282;23778;-84
2022/09/01 02:09:39;;;;;;;4.80;3.30;;;;;;;12.52;75.25;98205.00;105446;1283;23942;-84
2022/09/01 02:12:08;;;;;;;8.80;3.80;;;;;;;12.52;75.65;98206.56;105576;1283;25149;-84
2022/09/01 02:14:37;;;;;;;5.00;3.70;;;;;;;12.49;75.30;98208.13;105468;1283;22678;-84
2022/09/01 02:17:06;;;;;;;4.30;3.20;;;;;;;12.49;75.24;98206.79;105458;1282;22827;-84
2022/09/01 02:19:42;;;;;;;6.50;3.40;;;;;;;12.54;75.40;98209.71;105649;1282;22998;-85
2022/09/01 02:22:10;;;;;;;5.40;3.60;;;;;;;12.66;75.60;98212.84;105480;1282;22587;-84
2022/09/01 02:24:50;;;;;;;5.10;3.60;;;;;;;12.83;75.26;98213.66;105633;1282;27356;-84
2022/09/01 02:27:24;;;;;;;5.10;3.40;;;;;;;12.99;75.31;98213.19;105436;1282;23907;-85
2022/09/01 02:29:54;;;;;;;4.20;2.90;;;;;;;13.08;75.01;98213.09;105536;1283;22528;-85
2022/09/01 02:32:22;;;;;;;4.30;2.80;;;;;;;13.18;74.93;98213.54;105640;1282;22501;-85
2022/09/01 02:34:52;;;;;;;4.20;3.00;;;;;;;13.26;75.11;98217.75;106168;1284;22537;-85
2022/09/01 02:37:24;;;;;;;5.50;3.60;;;;;;;13.37;75.04;98216.34;105217;1287;24377;-85
2022/09/01 02:39:52;;;;;;;5.10;3.20;;;;;;;13.47;75.19;98218.97;105630;1282;25584;-82
2022/09/01 02:42:24;;;;;;;6.20;3.40;;;;;;;13.60;75.01;98222.04;105618;1282;22763;-84
2022/09/01 02:44:54;;;;;;;3.60;3.10;;;;;;;13.67;74.87;98220.04;105622;1282;22566;-85
2022/09/01 02:47:25;;;;;;;7.20;3.50;;;;;;;13.78;74.87;98216.44;105513;1284;25420;-85
2022/09/01 02:49:58;;;;;;;5.50;3.40;;;;;;;13.86;74.92;98218.66;105438;1284;24208;-83
2022/09/01 02:52:28;;;;;;;8.50;3.60;;;;;;;13.93;74.40;98214.20;105446;1284;22772;-84
2022/09/01 02:54:57;;;;;;;5.10;3.30;;;;;;;13.93;74.11;98214.20;105678;1283;25693;-84
2022/09/01 02:57:26;;;;;;;6.10;3.10;;;;;;;14.02;74.85;98217.98;105468;1284;23966;-84
2022/09/01 02:59:57;;;;;;;7.70;3.60;;;;;;;14.29;74.97;98209.90;108252;1282;23267;-84
2022/09/01 03:02:27;;;;;;;4.40;2.80;;;;;;;14.37;74.14;98211.73;108046;1282;23024;-85
2022/09/01 03:04:56;;;;;;;6.60;3.20;;;;;;;14.44;74.36;98205.56;107688;1282;24018;-83
2022/09/01 03:07:25;;;;;;;7.60;3.30;;;;;;;14.47;73.94;98205.94;107595;1284;25475;-85
2022/09/01 03:09:54;;;;;;;4.70;3.20;;;;;;;14.41;73.67;98203.64;107750;1281;23694;-84
2022/09/01 03:12:23;;;;;;;4.60;3.40;;;;;;;14.25;73.46;98203.59;107188;1282;22714;-84
2022/09/01 03:14:52;;;;;;;4.70;3.60;;;;;;;14.11;73.76;98202.23;107279;1283;22548;-83
2022/09/01 03:17:20;;;;;;;7.40;3.70;;;;;;;14.17;74.00;98201.71;107850;1283;22497;-85
2022/09/01 03:19:50;;;;;;;4.70;2.90;;;;;;;14.18;73.83;98197.96;105860;1283;22730;-84
2022/09/01 03:22:19;;;;;;;5.40;3.30;;;;;;;14.23;73.64;98199.25;105559;1284;22613;-84
2022/09/01 03:29:02;;;;;;;7.80;3.10;;;;;;;14.10;73.22;98209.08;105645;1282;24295;-84
2022/09/01 03:31:30;;;;;;;5.40;3.70;;;;;;;13.86;73.46;98209.61;105620;1284;22696;-84
2022/09/01 03:37:51;;;;;;;5.20;3.60;;;;;;;13.67;73.60;98211.95;105732;1284;22666;-84
2022/09/01 03:40:20;;;;;;;4.30;2.70;;;;;;;13.53;73.77;98208.09;105724;1283;22710;-85
2022/09/01 03:42:48;;;;;;;5.10;3.10;;;;;;;13.33;73.99;98211.02;105615;1284;25510;-84
2022/09/01 03:45:19;;;;;;;16.60;14.90;;;;;;;13.04;74.04;98210.58;105507;1284;24172;-84
2022/09/01 03:47:47;;;;;;;7.00;3.50;;;;;;;12.84;74.99;98214.77;105584;1284;22559;-84
2022/09/01 03:50:19;;;;;;;5.70;3.30;;;;;;;12.70;75.11;98212.05;105549;1284;22708;-85
2022/09/01 03:52:54;;;;;;;8.50;3.50;;;;;;;12.79;75.70;98208.34;105696;1282;24117;-84
2022/09/01 03:55:26;;;;;;;6.30;3.60;;;;;;;12.91;74.87;98209.16;105586;1284;22733;-84
2022/09/01 03:58:05;;;;;;;6.30;3.60;;;;;;;12.95;74.63;98211.75;105639;1283;25367;-84
2022/09/01 04:00:42;;;;;;;5.30;3.50;;;;;;;12.93;74.42;98212.71;105708;1283;25314;-84
2022/09/01 04:03:20;;;;;;;10.00;3.70;;;;;;;13.09;75.59;98212.71;105634;1284;22563;-85
2022/09/01 04:05:58;;;;;;;6.60;3.30;;;;;;;13.24;75.77;98213.46;105446;1284;22665;-84
2022/09/01 04:08:29;;;;;;;5.40;3.40;;;;;;;13.48;75.65;98216.24;105680;1284;22736;-85
2022/09/01 04:11:12;;;;;;;5.50;3.30;;;;;;;13.45;74.94;98217.55;105873;1284;23882;-84
2022/09/01 04:13:41;;;;;;;6.40;3.30;;;;;;;13.35;74.38;98216.73;105215;1286;22539;-83
2022/09/01 04:19:19;;;;;;;6.10;3.30;;;;;;;13.42;75.46;98218.95;105287;1286;22690;-83
2022/09/01 04:21:51;;;;;;;7.60;4.30;;;;;;;13.57;75.34;98226.90;105318;1284;22664;-83
2022/09/01 04:24:22;;;;;;;5.70;4.00;;;;;;;13.65;75.46;98223.23;105481;1284;23458;-83
2022/09/01 04:26:53;;;;;;;8.80;4.40;;;;;;;13.84;75.38;98227.39;105507;1284;24374;-83
2022/09/01 04:29:28;;;;;;;6.90;4.10;;;;;;;13.86;74.88;98228.03;105498;1284;22560;-83
2022/09/01 04:32:06;;;;;;;11.70;4.00;;;;;;;13.83;75.22;98226.81;105651;1284;24222;-83
2022/09/01 04:34:38;;;;;;;6.50;3.50;;;;;;;13.82;74.50;98226.97;105621;1284;25396;-84
2022/09/01 04:37:17;;;;;;;11.00;5.50;;;;;;;13.83;74.68;98227.04;105655;1282;25323;-84
2022/09/01 04:39:51;;;;;;;9.80;5.90;;;;;;;13.59;74.60;98226.95;105490;1284;22549;-85
2022/09/01 04:42:27;;;;;;;10.40;5.40;;;;;;;13.41;74.63;98226.42;105372;1284;22581;-86
2022/09/01 04:45:00;;;;;;;14.10;6.10;;;;;;;13.40;75.38;98231.77;105670;1284;25455;-83
2022/09/01 04:47:30;;;;;;;9.40;5.60;;;;;;;13.52;75.40;98232.70;105308;1283;25475;-84
2022/09/01 04:50:12;;;;;;;9.30;4.90;;;;;;;13.65;75.82;98232.27;105568;1283;25421;-86
2022/09/01 04:52:46;;;;;;;8.90;6.70;;;;;;;13.86;75.38;98230.45;105582;1284;25399;-83
2022/09/01 04:55:28;;;;;;;9.40;7.00;;;;;;;14.01;75.56;98236.20;105603;1284;22625;-84
2022/09/01 04:58:03;;;;;;;8.10;6.00;;;;;;;14.20;75.42;98231.84;105448;1284;22762;-84
2022/09/01 05:00:37;;;;;;;11.60;5.80;;;;;;;14.27;75.15;98232.33;105586;1284;22882;-84
2022/09/01 05:03:05;;;;;;;7.20;5.10;;;;;;;14.27;74.18;98229.02;105376;1284;24270;-85
2022/09/01 05:06:00;;;;;;;7.20;4.90;;;;;;;14.16;74.61;98228.63;105600;1283;25341;-83
2022/09/01 05:08:33;;;;;;;7.20;4.50;;;;;;;14.08;74.40;98232.58;105591;1283;25310;-85
2022/09/01 05:11:06;;;;;;;7.60;4.70;;;;;;;14.05;74.68;98228.27;105650;1284;24012;-85
2022/09/01 05:13:40;;;;;;;8.00;4.30;;;;;;;14.07;74.37;98229.13;105672;1283;26452;-85
2022/09/01 05:16:14;;;;;;;8.00;4.30;;;;;;;14.06;74.63;98225.70;105465;1283;22608;-86
2022/09/01 05:18:47;;;;;;;7.20;3.60;;;;;;;14.07;74.54;98226.48;105536;1282;22547;-85
2022/09/01 05:21:21;;;;;;;6.60;4.20;;;;;;;14.16;74.76;98230.04;105439;1284;22747;-85
2022/09/01 05:23:50;;;;;;;8.00;4.20;;;;;;;14.14;74.31;98231.77;105601;1283;22714;-86
2022/09/01 05:26:25;;;;;;;6.20;3.60;;;;;;;14.26;74.86;98229.05;105416;1283;22555;-85
2022/09/01 05:28:56;;;;;;;6.70;3.30;;;;;;;14.39;74.44;98226.95;105426;1284;25464;-85
2022/09/01 05:31:27;;;;;;;9.20;3.70;;;;;;;14.45;74.50;98224.98;105405;1284;22572;-86
2022/09/01 05:33:56;;;;;;;7.50;3.60;;;;;;;14.51;74.00;98226.55;105389;1283;24311;-86
2022/09/01 05:36:25;;;;;;;6.70;4.00;;;;;;;14.47;74.04;98225.14;105492;1283;22611;-84
2022/09/01 05:38:57;;;;;;;7.10;3.90;;;;;;;14.56;74.17;98224.97;105449;1282;25516;-85
2022/09/01 05:41:27;;;;;;;7.50;3.90;;;;;;;14.60;73.91;98224.04;105595;1283;22783;-86
2022/09/01 05:43:55;;;;;;;6.80;3.50;;;;;;;14.64;73.93;98222.77;105495;1282;25354;-86
2022/09/01 05:46:28;;;;;;;6.60;3.60;;;;;;;14.73;73.60;98225.38;105445;1283;22572;-87
2022/09/01 05:48:58;;;;;;;8.10;3.30;;;;;;;14.81;73.84;98226.59;106064;1283;22580;-86
2022/09/01 05:51:29;;;;;;;9.60;3.00;;;;;;;15.00;73.98;98228.71;105817;1284;22552;-87
2022/09/01 05:54:13;;;;;;;5.70;3.10;;;;;;;15.27;73.68;98226.23;105616;1283;22542;-84
2022/09/01 05:56:43;;;;;;;5.50;2.90;;;;;;;15.38;73.41;98225.09;105433;1282;22676;-84
2022/09/01 05:59:19;;;;;;;6.40;3.20;;;;;;;15.48;73.26;98226.16;105777;1282;25427;-90
2022/09/01 06:01:53;;;;;;;5.00;3.00;;;;;;;15.46;72.86;98225.41;106185;1283;24231;-92
2022/09/01 06:04:24;;;;;;;5.90;2.70;;;;;;;15.41;72.83;98227.91;105862;1284;23960;-89
2022/09/01 06:06:54;;;;;;;5.70;2.70;;;;;;;15.37;72.68;98227.82;105892;1283;23694;-93
2022/09/01 06:09:40;;;;;;;5.40;2.30;;;;;;;15.26;72.46;98232.45;105970;1282;24114;-91
2022/09/01 06:12:16;;;;;;;3.20;2.30;;;;;;;15.20;72.54;98234.29;105912;1283;25368;-87
2022/09/01 06:14:47;;;;;;;4.30;2.20;;;;;;;15.17;72.30;98234.80;105510;1284;22622;-88
2022/09/01 06:17:23;;;;;;;3.40;2.50;;;;;;;15.15;72.09;98235.73;105416;1282;22538;-89
2022/09/01 06:19:55;;;;;;;5.20;2.20;;;;;;;15.16;72.26;98239.63;105726;1282;24378;-89
2022/09/01 06:22:26;;;;;;;3.70;2.40;;;;;;;15.20;72.05;98238.44;105521;1283;22564;-83
2022/09/01 06:24:55;;;;;;;3.30;2.50;;;;;;;15.26;72.10;98238.44;105510;1283;22557;-89
2022/09/01 06:27:37;;;;;;;3.10;2.40;;;;;;;15.34;71.93;98235.77;105672;1282;22789;-90
2022/09/01 06:30:13;;;;;;;2.30;2.10;;;;;;;15.38;71.82;98238.04;105615;1284;25545;-89
2022/09/01 06:32:50;;;;;;;2.80;2.20;;;;;;;15.44;71.89;98239.75;105605;1283;22576;-89
2022/09/01 06:35:20;;;;;;;5.70;2.20;;;;;;;15.48;71.09;98240.13;105686;1283;22771;-87
2022/09/01 06:37:48;;;;;;;4.30;2.20;;;;;;;15.50;71.43;98243.35;105382;1282;24264;-89
2022/09/01 06:40:34;;;;;;;5.30;2.10;;;;;;;15.57;71.37;98240.15;105686;1282;22712;-89
2022/09/01 06:43:06;;;;;;;3.30;2.40;;;;;;;15.68;71.03;98249.66;105450;1284;22683;-88
2022/09/01 06:45:43;;;;;;;3.50;2.30;;;;;;;15.75;70.12;98251.35;105693;1282;22670;-91
2022/09/01 06:48:15;;;;;;;3.80;2.40;;;;;;;15.78;70.62;98252.17;105515;1283;22602;-91
2022/09/01 06:50:44;;;;;;;4.10;2.30;;;;;;;15.86;70.37;98254.67;105501;1282;22544;-88
2022/09/01 06:53:33;;;;;;;4.10;2.20;;;;;;;16.01;70.72;98255.92;105691;1282;25387;-90
2022/09/01 06:56:05;;;;;;;3.90;2.10;;;;;;;16.14;70.23;98258.92;105464;1281;22646;-89
2022/09/01 06:58:33;;;;;;;3.00;2.10;;;;;;;16.21;69.65;98262.64;105395;1283;24539;-89
2022/09/01 07:01:14;;;;;;;4.80;2.20;;;;;;;16.24;69.11;98264.54;105507;1282;25450;-89
2022/09/01 07:03:44;;;;;;;2.40;2.00;;;;;;;16.27;68.79;98267.52;105493;1283;25268;-91
2022/09/01 07:06:35;;;;;;;7.60;2.30;;;;;;;16.28;68.52;98264.26;105618;1282;24393;-90
2022/09/01 07:09:43;;;;;;;2.90;2.10;;;;;;;16.37;68.66;98265.67;105657;1282;22537;-90
2022/09/01 07:12:40;;;;;;;3.20;2.30;;;;;;;16.48;68.77;98265.64;105947;1282;26623;-89
2022/09/01 07:15:31;;;;;;;4.40;2.00;;;;;;;16.58;68.92;98266.77;105510;1283;22566;-89
2022/09/01 07:18:24;;;;;;;3.60;1.90;;;;;;;16.68;68.70;98269.91;105551;1283;24821;-88
2022/09/01 07:20:53;;;;;;;3.40;2.10;;;;;;;16.72;67.63;98266.68;105973;1282;25348;-93
2022/09/01 07:23:42;;;;;;;3.30;2.00;;;;;;;16.70;67.73;98270.41;105593;1282;25585;-88
2022/09/01 07:26:34;;;;;;;4.10;2.40;;;;;;;16.71;67.46;98269.43;106354;1282;23516;-88
2022/09/01 07:29:05;;;;;;;4.70;2.20;;;;;;;16.74;67.85;98267.30;106071;1283;22550;-89
2022/09/01 07:31:42;;;;;;;4.60;2.30;;;;;;;16.82;67.59;98270.42;105603;1284;24211;-89
2022/09/01 07:34:31;;;;;;;4.20;2.50;;;;;;;16.87;67.14;98272.63;105606;1282;22564;-89
2022/09/01 07:37:10;;;;;;;2.20;1.90;;;;;;;16.92;66.74;98272.27;105726;1283;22570;-89
2022/09/01 07:39:58;;;;;;;2.60;1.70;;;;;;;17.01;66.10;98269.49;105585;1282;22538;-89
2022/09/01 07:43:17;;;;;;;5.40;1.60;;;;;;;17.01;65.43;98274.27;105756;1282;22592;-88
2022/09/01 07:45:58;;;;;;;4.20;1.90;;;;;;;17.08;65.54;98274.11;105708;1283;25354;-83
2022/09/01 07:48:28;;;;;;;4.20;2.00;;;;;;;17.17;64.73;98270.33;105751;1282;22676;-83
2022/09/01 07:51:19;;;;;;;3.70;1.90;;;;;;;17.23;64.66;98273.20;105646;1282;22535;-86
2022/09/01 07:54:05;;;;;;;2.60;1.60;;;;;;;17.32;63.55;98273.81;106048;1282;22916;-90
2022/09/01 07:56:34;;;;;;;5.20;1.70;;;;;;;17.48;64.60;98269.58;106622;1282;22736;-91
2022/09/01 07:59:09;;;;;;;3.30;1.40;;;;;;;17.74;64.92;98269.95;106231;1282;24023;-89
2022/09/01 08:01:50;;;;;;;3.20;1.60;;;;;;;17.92;61.95;98270.90;105951;1282;23355;-92
2022/09/01 08:04:21;;;;;;;3.00;1.70;;;;;;;17.98;61.08;98268.36;105915;1282;25373;-92
2022/09/01 08:06:50;;;;;;;2.70;1.40;;;;;;;18.12;61.99;98265.57;105793;1282;24208;-91
2022/09/01 08:09:19;;;;;;;1.60;1.50;;;;;;;18.26;60.06;98270.02;105949;1282;22566;-92
2022/09/01 08:12:10;;;;;;;3.30;1.60;;;;;;;18.43;60.16;98263.52;105949;1282;22604;-92
2022/09/01 08:14:52;;;;;;;3.10;1.40;;;;;;;18.51;59.00;98263.00;105933;1282;22797;-92
2022/09/01 08:17:41;;;;;;;1.60;1.50;;;;;;;18.34;57.04;98262.71;105777;1282;22670;-92
2022/09/01 08:20:29;;;;;;;1.50;1.40;;;;;;;18.31;57.82;98265.88;105797;1282;22585;-90
2022/09/01 08:23:09;;;;;;;2.10;1.50;;;;;;;18.29;58.11;98273.70;105831;1282;25338;-91
2022/09/01 08:25:41;;;;;;;5.60;1.60;;;;;;;18.30;57.40;98271.92;105644;1282;22700;-88
2022/09/01 08:28:11;;;;;;;3.80;1.60;;;;;;;18.29;57.03;98275.55;105781;1282;25583;-87
2022/09/01 08:30:43;;;;;;;3.00;1.50;;;;;;;18.15;56.45;98277.52;105776;1282;22578;-88
2022/09/01 08:33:22;;;;;;;3.40;1.50;;;;;;;18.09;57.31;98280.89;106069;1282;22556;-88
2022/09/01 08:35:50;;;;;;;2.60;1.50;;;;;;;18.06;57.00;98279.07;106202;1282;24907;-87
2022/09/01 08:38:18;;;;;;;2.30;1.60;;;;;;;18.08;57.20;98276.98;105848;1283;24237;-87
2022/09/01 08:40:54;;;;;;;2.20;1.50;;;;;;;18.16;58.11;98277.48;105962;1282;23378;-88
2022/09/01 08:43:37;;;;;;;2.10;1.70;;;;;;;18.38;58.14;98279.67;106064;1282;22657;-88
2022/09/01 08:46:16;;;;;;;3.70;1.60;;;;;;;18.52;54.89;98273.63;106214;1282;22567;-89
2022/09/01 08:48:50;;;;;;;2.20;1.50;;;;;;;18.60;54.34;98273.42;106459;1282;22589;-89
2022/09/01 08:52:10;;;;;;;1.60;1.50;;;;;;;18.62;53.40;98275.58;105997;1282;24921;-90
2022/09/01 08:54:48;;;;;;;2.50;1.80;;;;;;;18.66;54.22;98275.08;105922;1282;25959;-90
2022/09/01 08:57:24;;;;;;;2.90;1.50;;;;;;;18.83;54.56;98271.20;105854;1282;22597;-88
2022/09/01 09:00:14;;;;;;;1.60;1.50;;;;;;;19.00;53.71;98273.96;106198;1282;22559;-89
2022/09/01 09:03:00;;;;;;;4.70;1.80;;;;;;;19.03;52.11;98273.98;106143;1282;23417;-87
2022/09/01 09:05:50;;;;;;;2.20;1.40;;;;;;;18.99;52.20;98276.24;107071;1282;22711;-88
2022/09/01 09:08:27;;;;;;;2.50;1.50;;;;;;;18.93;50.99;98278.52;105804;1282;25236;-90
2022/09/01 09:11:05;;;;;;;3.40;1.60;;;;;;;18.95;52.61;98283.00;106285;1282;25448;-87
2022/09/01 09:14:03;;;;;;;2.00;1.60;;;;;;;19.18;52.33;98279.17;105787;1282;23439;-89
2022/09/01 09:16:38;;;;;;;2.20;1.60;;;;;;;19.40;51.38;98279.32;105943;1282;22582;-89
2022/09/01 09:19:15;;;;;;;2.70;1.50;;;;;;;19.47;50.10;98273.35;106108;1282;22700;-89
2022/09/01 09:21:46;;;;;;;1.70;1.40;;;;;;;19.46;49.69;98272.63;105713;1282;22544;-89
2022/09/01 09:24:51;;;;;;;2.90;1.50;;;;;;;19.41;48.41;98268.76;105826;1282;25377;-88
2022/09/01 09:27:23;;;;;;;2.10;1.40;;;;;;;19.33;49.71;98273.59;106039;1282;25239;-88
2022/09/01 09:29:59;;;;;;;3.80;1.80;;;;;;;19.35;49.15;98278.25;105765;1282;24374;-90
2022/09/01 09:33:03;;;;;;;2.10;1.60;;;;;;;19.51;50.30;98274.72;105876;1282;24112;-88
2022/09/01 09:35:53;;;;;;;2.30;1.70;;;;;;;19.76;50.41;98270.16;105678;1282;22567;-91
2022/09/01 09:38:31;;;;;;;1.70;1.60;;;;;;;19.91;48.73;98270.96;105877;1282;22727;-90
2022/09/01 09:41:06;;;;;;;2.00;1.80;;;;;;;19.91;48.45;98275.44;105792;1282;22828;-91
2022/09/01 09:44:04;;;;;;;2.80;1.90;;;;;;;20.04;49.75;98273.17;105922;1282;25424;-90
2022/09/01 09:46:40;;;;;;;4.00;1.70;;;;;;;20.05;48.95;98267.88;106042;1284;25297;-91
2022/09/01 09:49:14;;;;;;;3.70;1.60;;;;;;;20.03;48.82;98269.86;106521;1282;22538;-91
2022/09/01 09:51:47;;;;;;;;;;;;;;;19.98;48.67;98271.86;106763;1282;24290;-93
2022/09/01 09:54:27;;;;;;;1.50;1.40;;;;;;;20.06;47.14;98270.72;104883;1282;2802110;-90
2022/09/01 09:57:07;;;;;;;4.70;1.60;;;;;;;20.12;47.34;98272.05;106593;1282;22572;-91
2022/09/01 10:00:02;;;;;;;1.80;1.30;;;;;;;20.29;47.64;98272.63;106378;1284;24372;-93
2022/09/01 10:02:43;;;;;;;2.20;1.60;;;;;;;20.20;46.70;98269.11;106139;1282;24298;-90
2022/09/01 10:05:24;;;;;;;3.40;1.60;;;;;;;20.21;47.89;98271.80;106049;1284;23041;-91
2022/09/01 10:07:53;;;;;;;2.50;1.70;;;;;;;20.38;47.74;98269.55;106332;1284;24133;-91
2022/09/01 10:10:43;;;;;;;2.20;1.60;;;;;;;20.48;47.27;98265.97;106085;1283;24252;-91
2022/09/01 10:13:18;;;;;;;2.00;1.50;;;;;;;20.71;47.84;98265.19;105860;1282;24327;-91
2022/09/01 10:15:50;;;;;;;3.10;1.60;;;;;;;20.77;47.16;98261.41;105847;1284;22784;-92
2022/09/01 10:18:24;;;;;;;2.70;1.50;;;;;;;20.60;46.48;98266.65;106169;1282;22524;-90
2022/09/01 10:21:08;;;;;;;2.40;1.40;;;;;;;20.26;45.00;98270.05;105989;1283;24288;-90
2022/09/01 10:23:37;;;;;;;3.60;2.10;;;;;;;19.80;45.34;98267.93;106262;1282;22584;-91
2022/09/01 10:26:15;;;;;;;3.40;1.50;;;;;;;19.56;45.30;98261.41;106201;1283;22695;-87
2022/09/01 10:29:05;;;;;;;3.40;1.50;;;;;;;19.60;45.71;98256.21;106068;1283;25448;-90
2022/09/01 10:31:34;;;;;;;2.90;1.80;;;;;;;19.84;46.56;98259.21;106159;1284;23142;-90
2022/09/01 10:34:05;;;;;;;3.20;1.50;;;;;;;20.10;45.49;98258.88;105973;1282;22740;-93
2022/09/01 10:36:35;;;;;;;1.80;1.40;;;;;;;20.27;45.65;98265.45;105785;1285;22622;-90
2022/09/01 10:39:10;;;;;;;2.20;1.60;;;;;;;20.47;45.59;98259.66;105724;1282;22560;-92
2022/09/01 10:41:41;;;;;;;1.60;1.50;;;;;;;20.66;46.20;98252.55;106993;1282;22497;-90
2022/09/01 10:44:19;;;;;;;3.30;1.90;;;;;;;20.88;44.60;98250.16;106620;1282;22617;-90
2022/09/01 10:46:48;;;;;;;2.50;1.60;;;;;;;20.57;42.85;98252.72;105968;1283;24288;-89
2022/09/01 10:49:26;;;;;;;1.90;1.20;;;;;;;20.43;43.64;98255.29;106338;1282;25928;-90
2022/09/01 10:51:57;;;;;;;3.00;1.90;;;;;;;20.52;43.55;98255.25;106982;1282;22579;-91
2022/09/01 10:54:40;;;;;;;2.60;1.50;;;;;;;20.70;44.41;98245.63;106556;1282;25393;-92
2022/09/01 10:57:49;;;;;;;2.60;1.80;;;;;;;20.99;43.66;98248.66;106854;1282;25367;-91
2022/09/01 11:00:17;;;;;;;6.00;1.50;;;;;;;20.99;43.97;98256.02;107224;1280;22772;-91
2022/09/01 11:03:11;;;;;;;1.90;1.60;;;;;;;20.68;43.56;98254.27;107564;1282;22610;-91
2022/09/01 11:06:00;;;;;;;3.50;1.60;;;;;;;20.28;44.21;98262.37;107818;1282;22890;-92
2022/09/01 11:11:44;;;;;;;2.80;1.70;;;;;;;19.80;44.81;98255.22;109090;1268;25365;-93
2022/09/01 11:14:18;;;;;;;2.40;1.70;;;;;;;19.65;45.34;98252.53;108646;1282;23050;-93
2022/09/01 11:17:30;;;;;;;2.50;1.70;;;;;;;19.61;45.40;98246.56;107827;1284;22569;-91
2022/09/01 11:20:08;;;;;;;3.10;1.80;;;;;;;19.70;45.44;98249.24;106765;1284;22568;-93
2022/09/01 11:22:40;;;;;;;3.20;1.90;;;;;;;19.66;45.52;98247.18;105793;1284;25672;-91
2022/09/01 11:25:54;;;;;;;3.40;2.10;;;;;;;19.78;45.41;98247.44;106065;1282;22703;-92
2022/09/01 11:28:42;;;;;;;3.20;1.60;;;;;;;20.18;44.09;98247.26;107515;1282;22697;-90
2022/09/01 11:31:20;;;;;;;2.40;1.40;;;;;;;20.41;44.46;98248.42;107307;1282;22613;-91
2022/09/01 11:33:55;;;;;;;2.70;1.40;;;;;;;20.61;43.46;98244.15;107481;1283;22549;-91
2022/09/01 11:36:46;;;;;;;1.30;1.20;;;;;;;20.76;43.38;98243.23;106430;1283;22630;-91
2022/09/01 11:39:25;;;;;;;1.40;1.20;;;;;;;21.09;43.54;98236.33;105803;1282;23047;-92
2022/09/01 11:42:09;;;;;;;4.10;1.70;;;;;;;21.40;42.46;98234.32;105698;1283;22753;-90
2022/09/01 11:44:36;;;;;;;3.20;1.30;;;;;;;21.63;42.59;98231.79;105905;1282;26636;-90
2022/09/01 11:47:10;;;;;;;4.70;1.30;;;;;;;21.89;41.65;98231.79;105984;1284;24302;-91
2022/09/01 11:49:52;;;;;;;3.70;1.30;;;;;;;22.04;39.98;98229.85;106116;1282;22732;-90
2022/09/01 11:52:23;;;;;;;2.70;1.30;;;;;;;22.15;40.03;98228.23;106229;1282;25345;-89
2022/09/01 11:54:53;;;;;;;1.30;1.20;;;;;;;22.26;40.31;98225.62;106141;1284;23431;-90
2022/09/01 11:57:32;;;;;;;1.50;1.30;;;;;;;22.39;39.05;98227.92;106319;1282;22563;-92
2022/09/01 12:00:09;;;;;;;1.80;1.30;;;;;;;22.48;39.42;98229.09;106750;1282;23798;-91
2022/09/01 12:02:48;;;;;;;3.50;1.50;;;;;;;22.57;37.70;98231.48;106485;1282;24129;-88
2022/09/01 12:05:24;;;;;;;2.80;1.30;;;;;;;22.27;38.01;98232.13;107804;1282;22630;-89
2022/09/01 12:07:53;;;;;;;2.30;1.20;;;;;;;22.06;38.48;98235.69;106222;1282;22793;-91
2022/09/01 12:10:37;;;;;;;2.40;1.40;;;;;;;21.89;38.32;98235.55;106062;1283;22587;-89
2022/09/01 12:13:30;;;;;;;4.00;1.40;;;;;;;21.90;38.31;98230.88;106036;1282;25472;-87
2022/09/01 12:16:02;;;;;;;1.40;1.30;;;;;;;21.79;38.30;98223.54;106545;1282;22607;-85
2022/09/01 12:18:49;;;;;;;3.40;1.50;;;;;;;21.79;37.80;98224.17;105915;1282;24291;-86
2022/09/01 12:21:43;;;;;;;4.10;1.30;;;;;;;21.88;38.17;98227.38;105664;1282;24288;-84